createdAt,value
2022-08-03T00:02:19.907Z,6.65
2022-08-03T00:04:48.570Z,6.20
2022-08-03T00:07:18.761Z,6.60
2022-08-03T00:09:47.207Z,6.60
2022-08-03T00:12:15.860Z,6.75
2022-08-03T00:14:44.785Z,6.90
2022-08-03T00:17:13.146Z,6.68
2022-08-03T00:19:41.567Z,6.68
2022-08-03T00:22:10.119Z,7.10
2022-08-03T00:24:40.006Z,7.20
2022-08-03T00:27:08.452Z,6.55
2022-08-03T00:30:00.017Z,7.20
2022-08-03T00:32:25.620Z,7.03
2022-08-03T00:34:57.842Z,7.00
2022-08-03T00:37:41.423Z,6.68
2022-08-03T00:40:14.382Z,7.30
2022-08-03T00:42:51.017Z,7.28
2022-08-03T00:45:19.959Z,7.07
2022-08-03T00:47:48.816Z,6.72
2022-08-03T00:50:18.424Z,7.78
2022-08-03T00:52:47.952Z,7.03
2022-08-03T00:55:18.128Z,7.15
2022-08-03T00:57:47.694Z,7.43
2022-08-03T01:00:19.270Z,7.45
2022-08-03T01:02:47.799Z,7.60
2022-08-03T01:05:16.763Z,7.43
2022-08-03T01:08:01.789Z,7.05
2022-08-03T01:10:41.230Z,7.03
2022-08-03T01:14:00.314Z,6.82
2022-08-03T01:16:22.007Z,7.55
2022-08-03T01:19:20.524Z,7.30
2022-08-03T01:22:03.154Z,6.95
2022-08-03T01:24:44.936Z,6.88
2022-08-03T01:27:19.514Z,7.32
2022-08-03T01:30:03.793Z,6.72
2022-08-03T01:32:58.533Z,7.00
2022-08-03T01:35:38.799Z,7.57
2022-08-03T01:38:13.497Z,6.57
2022-08-03T01:40:45.028Z,6.72
2022-08-03T01:44:28.057Z,7.00
2022-08-03T01:46:09.306Z,6.70
2022-08-03T01:48:39.024Z,6.72
2022-08-03T01:51:10.271Z,6.65
2022-08-03T01:53:39.710Z,6.75
2022-08-03T01:56:08.999Z,7.03
2022-08-03T01:58:38.537Z,7.10
2022-08-03T02:01:10.666Z,6.63
2022-08-03T02:04:00.772Z,6.70
2022-08-03T02:07:00.008Z,6.97
2022-08-03T02:09:22.921Z,7.43
2022-08-03T02:11:53.522Z,7.25
2022-08-03T02:14:23.571Z,6.72
2022-08-03T02:16:54.286Z,7.35
2022-08-03T02:19:24.664Z,7.60
2022-08-03T02:21:57.042Z,7.43
2022-08-03T02:24:30.146Z,7.47
2022-08-03T02:27:00.263Z,6.70
2022-08-03T02:29:40.243Z,6.97
2022-08-03T02:32:14.110Z,7.22
2022-08-03T02:34:46.642Z,6.90
2022-08-03T02:37:16.413Z,6.68
2022-08-03T02:39:46.163Z,6.80
2022-08-03T02:42:17.951Z,7.40
2022-08-03T02:44:51.488Z,7.40
2022-08-03T02:47:22.743Z,7.07
2022-08-03T02:49:53.972Z,7.05
2022-08-03T02:52:24.491Z,6.80
2022-08-03T02:54:56.548Z,7.00
2022-08-03T02:57:26.898Z,6.90
2022-08-03T02:59:56.858Z,6.88
2022-08-03T03:02:27.043Z,7.88
2022-08-03T03:05:53.052Z,6.68
2022-08-03T03:07:53.043Z,6.90
2022-08-03T03:10:23.845Z,6.80
2022-08-03T03:12:53.834Z,7.25
2022-08-03T03:15:22.543Z,7.07
2022-08-03T03:17:54.840Z,7.30
2022-08-03T03:20:29.861Z,7.07
2022-08-03T03:23:01.374Z,7.13
2022-08-03T03:25:32.238Z,6.75
2022-08-03T03:28:01.409Z,6.57
2022-08-03T03:30:31.300Z,7.10
2022-08-03T03:33:01.173Z,6.82
2022-08-03T03:35:30.035Z,6.78
2022-08-03T03:37:58.711Z,6.60
2022-08-03T03:40:27.783Z,6.93
2022-08-03T03:42:56.432Z,7.38
2022-08-03T03:45:25.775Z,7.00
2022-08-03T03:47:54.476Z,6.90
2022-08-03T03:50:25.406Z,7.05
2022-08-03T03:52:53.765Z,7.18
2022-08-03T03:55:22.268Z,6.90
2022-08-03T03:57:50.653Z,6.93
2022-08-03T04:00:20.445Z,7.15
2022-08-03T04:02:49.128Z,7.20
2022-08-03T04:05:34.720Z,6.53
2022-08-03T04:08:27.664Z,6.85
2022-08-03T04:11:04.323Z,6.88
2022-08-03T04:13:35.767Z,7.13
2022-08-03T04:16:05.779Z,6.55
2022-08-03T04:18:37.056Z,6.50
2022-08-03T04:21:09.956Z,8.10
2022-08-03T04:23:42.950Z,7.13
2022-08-03T04:26:14.964Z,7.53
2022-08-03T04:28:46.645Z,6.80
2022-08-03T04:31:16.383Z,7.22
2022-08-03T04:33:46.670Z,7.25
2022-08-03T04:36:19.067Z,6.60
2022-08-03T04:38:56.985Z,6.43
2022-08-03T04:41:27.777Z,6.38
2022-08-03T04:43:57.963Z,6.10
2022-08-03T04:46:29.912Z,5.90
2022-08-03T04:48:58.986Z,5.88
2022-08-03T04:51:27.912Z,6.18
2022-08-03T04:53:57.950Z,6.38
2022-08-03T04:56:26.230Z,6.20
2022-08-03T04:58:55.635Z,5.88
2022-08-03T05:01:24.234Z,6.55
2022-08-03T05:03:52.861Z,5.97
2022-08-03T05:06:21.257Z,6.28
2022-08-03T05:08:53.840Z,6.22
2022-08-03T05:11:23.733Z,6.63
2022-08-03T05:13:52.257Z,6.38
2022-08-03T05:16:20.672Z,6.60
2022-08-03T05:18:49.579Z,6.18
2022-08-03T05:21:18.026Z,6.00
2022-08-03T05:23:46.667Z,6.47
2022-08-03T05:26:15.368Z,6.30
2022-08-03T05:28:49.921Z,6.30
2022-08-03T05:31:20.806Z,6.30
2022-08-03T05:39:33.288Z,5.78
2022-08-03T05:42:31.253Z,5.55
2022-08-03T05:45:18.482Z,5.28
2022-08-03T05:54:18.177Z,4.70
2022-08-03T05:56:57.437Z,5.03
2022-08-03T05:59:38.879Z,4.80
2022-08-03T06:04:47.080Z,4.90
2022-08-03T06:07:18.537Z,4.93
2022-08-03T06:10:37.242Z,5.25
2022-08-03T06:12:57.153Z,5.00
2022-08-03T06:15:28.967Z,5.30
2022-08-03T06:18:01.988Z,5.13
2022-08-03T06:20:31.488Z,4.90
2022-08-03T06:23:54.660Z,4.85
2022-08-03T06:25:57.598Z,5.28
2022-08-03T06:31:18.202Z,5.03
2022-08-03T06:34:33.360Z,4.68
2022-08-03T06:36:38.934Z,4.53
2022-08-03T06:39:08.377Z,4.68
2022-08-03T06:41:37.527Z,5.00
2022-08-03T06:44:07.355Z,4.78
2022-08-03T06:46:36.482Z,4.95
2022-08-03T06:49:06.501Z,4.38
2022-08-03T06:52:03.051Z,4.45
2022-08-03T06:54:26.034Z,4.80
2022-08-03T06:56:55.829Z,4.75
2022-08-03T07:00:06.603Z,4.32
2022-08-03T07:04:49.354Z,4.15
2022-08-03T07:07:19.639Z,4.13
2022-08-03T07:09:56.768Z,4.43
2022-08-03T07:12:28.132Z,4.15
2022-08-03T07:15:00.907Z,4.45
2022-08-03T07:17:34.840Z,4.25
2022-08-03T07:20:07.120Z,4.00
2022-08-03T07:22:36.147Z,3.90
2022-08-03T07:25:05.389Z,3.45
2022-08-03T07:27:34.228Z,3.80
2022-08-03T07:30:03.073Z,4.05
2022-08-03T07:32:32.549Z,4.03
2022-08-03T07:35:01.771Z,3.55
2022-08-03T07:37:34.724Z,3.50
2022-08-03T07:40:05.583Z,3.35
2022-08-03T07:42:34.666Z,3.47
2022-08-03T07:45:03.311Z,3.42
2022-08-03T07:47:35.718Z,3.70
2022-08-03T07:50:08.601Z,3.17
2022-08-03T07:52:52.226Z,3.67
2022-08-03T07:55:22.454Z,3.40
2022-08-03T07:58:05.163Z,3.53
2022-08-03T08:00:34.182Z,3.65
2022-08-03T08:03:02.845Z,3.53
2022-08-03T08:05:31.841Z,3.38
2022-08-03T08:08:01.901Z,3.42
2022-08-03T08:10:31.302Z,3.60
2022-08-03T08:13:00.161Z,3.50
2022-08-03T08:15:29.286Z,3.40
2022-08-03T08:17:59.384Z,3.42
2022-08-03T08:20:31.496Z,3.20
2022-08-03T08:23:03.500Z,3.35
2022-08-03T08:25:37.616Z,3.97
2022-08-03T08:28:29.506Z,3.80
2022-08-03T08:30:55.129Z,3.28
2022-08-03T08:33:24.117Z,3.60
2022-08-03T08:35:55.026Z,3.63
2022-08-03T08:38:25.400Z,4.05
2022-08-03T08:40:57.104Z,3.08
2022-08-03T08:43:25.786Z,3.00
2022-08-03T08:45:55.931Z,3.28
2022-08-03T08:48:27.247Z,2.92
2022-08-03T08:50:56.965Z,3.03
2022-08-03T08:53:30.379Z,3.00
2022-08-03T08:56:03.686Z,3.25
2022-08-03T08:58:39.005Z,3.17
2022-08-03T09:01:07.619Z,3.17
2022-08-03T09:03:36.201Z,3.20
2022-08-03T09:06:05.609Z,3.20
2022-08-03T09:08:36.063Z,3.20
2022-08-03T09:11:04.983Z,3.30
2022-08-03T09:13:35.215Z,3.58
2022-08-03T09:16:15.471Z,3.75
2022-08-03T09:18:45.158Z,3.65
2022-08-03T09:21:35.728Z,3.30
2022-08-03T09:24:16.454Z,3.90
2022-08-03T09:26:54.356Z,3.47
2022-08-03T09:29:24.077Z,4.00
2022-08-03T09:32:03.147Z,3.67
2022-08-03T09:34:32.284Z,3.80
2022-08-03T09:37:01.261Z,4.22
2022-08-03T09:39:40.612Z,4.18
2022-08-03T09:42:14.743Z,4.30
2022-08-03T09:44:45.708Z,3.75
2022-08-03T09:47:16.207Z,3.90
2022-08-03T09:49:58.926Z,4.10
2022-08-03T09:52:49.661Z,3.72
2022-08-03T09:56:32.994Z,3.80
2022-08-03T09:58:47.295Z,3.85
2022-08-03T10:01:25.396Z,3.45
2022-08-03T10:04:04.235Z,3.38
2022-08-03T10:06:33.553Z,3.50
2022-08-03T10:09:11.400Z,3.63
2022-08-03T10:11:42.825Z,3.50
2022-08-03T10:14:19.298Z,3.20
2022-08-03T10:16:49.886Z,3.17
2022-08-03T10:19:18.700Z,3.20
2022-08-03T10:21:51.245Z,3.22
2022-08-03T10:24:25.949Z,2.97
2022-08-03T10:27:02.945Z,3.10
2022-08-03T10:29:36.340Z,3.00
2022-08-03T10:32:10.681Z,3.10
2022-08-03T10:34:44.682Z,2.90
2022-08-03T10:37:16.491Z,3.10
2022-08-03T10:39:54.732Z,3.28
2022-08-03T10:42:27.613Z,3.20
2022-08-03T10:45:06.098Z,3.47
2022-08-03T10:47:36.711Z,3.60
2022-08-03T10:50:06.615Z,3.42
2022-08-03T10:52:41.021Z,3.83
2022-08-03T10:55:49.384Z,3.35
2022-08-03T10:58:57.077Z,3.40
2022-08-03T11:01:59.061Z,2.83
2022-08-03T11:04:30.709Z,2.53
2022-08-03T11:07:23.182Z,2.65
2022-08-03T11:09:53.356Z,2.30
2022-08-03T11:12:30.314Z,2.67
2022-08-03T11:15:04.361Z,2.70
2022-08-03T11:17:46.925Z,2.38
2022-08-03T11:20:50.958Z,2.70
2022-08-03T11:24:02.127Z,2.47
2022-08-03T11:26:15.830Z,2.63
2022-08-03T11:28:46.465Z,3.00
2022-08-03T11:31:51.698Z,2.17
2022-08-03T11:34:20.754Z,2.40
2022-08-03T11:37:22.328Z,2.40
2022-08-03T11:39:54.935Z,2.30
2022-08-03T11:42:48.334Z,2.40
2022-08-03T11:45:20.028Z,2.67
2022-08-03T11:47:55.223Z,2.25
2022-08-03T11:50:24.640Z,2.30
2022-08-03T11:52:53.652Z,2.35
2022-08-03T11:55:22.457Z,2.53
2022-08-03T11:59:00.774Z,2.78
2022-08-03T12:00:40.561Z,2.50
2022-08-03T12:03:13.937Z,2.78
2022-08-03T12:05:51.932Z,2.55
2022-08-03T12:08:34.483Z,2.90
2022-08-03T12:11:06.862Z,2.70
2022-08-03T12:14:45.074Z,2.50
2022-08-03T12:16:29.178Z,3.00
2022-08-03T12:19:01.191Z,3.10
2022-08-03T12:21:30.590Z,3.17
2022-08-03T12:24:00.680Z,3.20
2022-08-03T12:26:30.668Z,3.00
2022-08-03T12:28:59.692Z,3.33
2022-08-03T12:31:28.084Z,3.00
2022-08-03T12:34:00.035Z,2.90
2022-08-03T12:36:29.217Z,3.00
2022-08-03T12:38:59.567Z,2.95
2022-08-03T12:41:34.049Z,2.88
2022-08-03T12:44:04.533Z,2.72
2022-08-03T12:46:34.787Z,2.20
2022-08-03T12:49:15.668Z,2.40
2022-08-03T12:52:01.728Z,2.47
2022-08-03T12:54:36.230Z,2.40
2022-08-03T12:57:06.519Z,2.58
2022-08-03T12:59:41.175Z,2.60
2022-08-03T13:02:17.909Z,2.40
2022-08-03T13:04:51.221Z,2.72
2022-08-03T13:07:21.399Z,2.55
2022-08-03T13:09:53.161Z,2.80
2022-08-03T13:12:23.349Z,2.85
2022-08-03T13:14:54.559Z,2.40
2022-08-03T13:17:23.185Z,2.70
2022-08-03T13:19:53.605Z,2.90
2022-08-03T13:22:24.879Z,3.20
2022-08-03T13:24:56.201Z,2.67
2022-08-03T13:28:03.317Z,2.80
2022-08-03T13:30:22.708Z,2.72
2022-08-03T13:33:00.640Z,3.08
2022-08-03T13:35:30.667Z,2.85
2022-08-03T13:37:59.290Z,3.00
2022-08-03T13:40:30.237Z,3.33
2022-08-03T13:42:59.088Z,2.80
2022-08-03T13:45:27.981Z,3.08
2022-08-03T13:47:56.852Z,3.03
2022-08-03T13:50:25.319Z,3.28
2022-08-03T13:52:55.517Z,2.92
2022-08-03T13:55:24.026Z,2.92
2022-08-03T13:58:06.701Z,3.35
2022-08-03T14:00:35.845Z,3.20
2022-08-03T14:03:12.594Z,2.88
2022-08-03T14:05:42.123Z,3.40
2022-08-03T14:08:13.290Z,3.20
2022-08-03T14:10:43.622Z,3.25
2022-08-03T14:13:16.867Z,2.75
2022-08-03T14:15:49.463Z,2.97
2022-08-03T14:18:28.322Z,2.78
2022-08-03T14:21:06.614Z,2.70
2022-08-03T14:23:38.838Z,3.40
2022-08-03T14:26:07.852Z,2.60
2022-08-03T14:28:36.941Z,2.53
2022-08-03T14:31:08.318Z,3.38
2022-08-03T14:33:50.340Z,2.60
2022-08-03T14:36:18.876Z,2.60
2022-08-03T14:38:50.273Z,2.78
2022-08-03T14:41:20.859Z,2.95
2022-08-03T14:44:02.145Z,3.03
2022-08-03T14:46:31.995Z,2.60
2022-08-03T14:50:33.448Z,3.10
2022-08-03T14:51:51.249Z,3.40
2022-08-03T14:54:24.015Z,3.20
2022-08-03T14:56:52.595Z,4.72
2022-08-03T14:59:21.561Z,3.40
2022-08-03T15:02:03.397Z,4.10
2022-08-03T15:04:35.091Z,3.67
2022-08-03T15:07:03.954Z,4.32
2022-08-03T15:09:34.228Z,3.90
2022-08-03T15:12:02.845Z,3.83
2022-08-03T15:14:33.205Z,4.22
2022-08-03T15:17:03.332Z,5.43
2022-08-03T15:20:02.235Z,3.90
2022-08-03T15:22:25.464Z,6.55
2022-08-03T15:26:28.198Z,4.80
2022-08-03T15:28:03.320Z,4.00
2022-08-03T15:30:36.142Z,4.60
2022-08-03T15:33:04.817Z,6.38
2022-08-03T15:35:33.581Z,4.20
2022-08-03T15:38:06.062Z,4.55
2022-08-03T15:40:39.306Z,4.10
2022-08-03T15:43:08.145Z,5.18
2022-08-03T15:45:37.571Z,4.85
2022-08-03T15:48:06.791Z,6.28
2022-08-03T15:50:35.469Z,4.25
2022-08-03T15:53:04.492Z,8.60
2022-08-03T15:55:33.499Z,4.15
2022-08-03T15:59:10.982Z,4.85
2022-08-03T16:00:52.006Z,5.30
2022-08-03T16:03:20.515Z,4.82
2022-08-03T16:05:49.101Z,4.82
2022-08-03T16:08:17.899Z,5.63
2022-08-03T16:10:48.069Z,4.63
2022-08-03T16:13:18.708Z,4.22
2022-08-03T16:15:47.263Z,4.78
2022-08-03T16:18:16.000Z,4.20
2022-08-03T16:20:44.951Z,4.72
2022-08-03T16:23:14.901Z,4.45
2022-08-03T16:25:49.372Z,5.10
2022-08-03T16:28:20.499Z,5.00
2022-08-03T16:30:49.479Z,4.68
2022-08-03T16:33:18.229Z,5.63
2022-08-03T16:35:47.289Z,5.60
2022-08-03T16:38:19.135Z,4.95
2022-08-03T16:40:52.112Z,4.80
2022-08-03T16:43:24.868Z,5.03
2022-08-03T16:45:53.699Z,6.13
2022-08-03T16:48:22.083Z,5.25
2022-08-03T16:50:50.820Z,6.85
2022-08-03T16:53:51.553Z,5.57
2022-08-03T16:56:10.551Z,5.30
2022-08-03T16:58:44.276Z,5.28
2022-08-03T17:01:22.626Z,5.95
2022-08-03T17:04:03.674Z,5.85
2022-08-03T17:06:35.977Z,5.68
2022-08-03T17:09:08.739Z,5.88
2022-08-03T17:11:46.787Z,5.50
2022-08-03T17:14:21.993Z,5.20
2022-08-03T17:16:54.144Z,5.80
2022-08-03T17:19:25.347Z,5.45
2022-08-03T17:22:04.599Z,5.97
2022-08-03T17:24:40.853Z,5.30
2022-08-03T17:28:42.128Z,6.07
2022-08-03T17:30:09.071Z,5.93
2022-08-03T17:32:42.593Z,5.65
2022-08-03T17:35:11.998Z,6.38
2022-08-03T17:37:58.556Z,6.32
2022-08-03T17:40:32.052Z,5.55
2022-08-03T17:43:02.329Z,5.72
2022-08-03T17:45:54.734Z,5.93
2022-08-03T17:48:25.198Z,5.60
2022-08-03T17:51:00.584Z,5.78
2022-08-03T17:53:33.588Z,6.35
2022-08-03T17:56:44.913Z,5.80
2022-08-03T17:59:09.258Z,6.28
2022-08-03T18:02:11.584Z,5.95
2022-08-03T18:04:55.539Z,6.13
2022-08-03T18:07:41.171Z,6.25
2022-08-03T18:10:11.359Z,6.07
2022-08-03T18:12:51.757Z,6.10
2022-08-03T18:15:26.653Z,6.00
2022-08-03T18:18:04.173Z,6.63
2022-08-03T18:20:42.641Z,5.88
2022-08-03T18:23:24.909Z,6.25
2022-08-03T18:26:07.169Z,5.97
2022-08-03T18:28:39.821Z,6.05
2022-08-03T18:31:11.974Z,6.13
2022-08-03T18:34:20.330Z,5.85
2022-08-03T18:36:37.669Z,6.32
2022-08-03T18:39:07.430Z,6.30
2022-08-03T18:41:36.701Z,6.07
2022-08-03T18:44:09.472Z,6.35
2022-08-03T18:47:16.511Z,5.88
2022-08-03T18:50:00.620Z,5.40
2022-08-03T18:52:37.533Z,6.00
2022-08-03T18:55:20.862Z,5.60
2022-08-03T18:58:01.131Z,5.90
2022-08-03T19:00:54.053Z,6.25
2022-08-03T19:03:43.269Z,5.90
2022-08-03T19:06:20.794Z,5.50
2022-08-03T19:08:55.796Z,5.55
2022-08-03T19:12:14.281Z,5.75
2022-08-03T19:14:41.592Z,5.93
2022-08-03T19:20:36.679Z,6.10
2022-08-03T19:23:08.333Z,6.28
2022-08-03T19:25:41.437Z,5.88
2022-08-03T19:28:11.418Z,6.50
2022-08-03T19:30:46.190Z,5.70
2022-08-03T19:33:22.710Z,6.55
2022-08-03T19:35:56.914Z,6.20
2022-08-03T19:38:29.849Z,6.30
2022-08-03T19:41:02.659Z,6.75
2022-08-03T19:49:18.466Z,6.40
2022-08-03T19:52:01.828Z,6.45
2022-08-03T19:54:52.779Z,13.98
2022-08-03T19:57:26.832Z,6.20
2022-08-03T19:59:57.709Z,6.00
2022-08-03T20:05:04.815Z,7.18
2022-08-03T20:10:38.784Z,6.28
2022-08-03T20:30:10.407Z,6.10
2022-08-03T20:52:08.839Z,5.95
2022-08-03T21:12:21.008Z,6.60
2022-08-03T21:13:10.447Z,14.98
2022-08-03T21:17:50.458Z,6.65
2022-08-03T21:20:28.741Z,6.32
2022-08-03T21:28:46.000Z,6.22
2022-08-03T21:31:27.118Z,6.45
2022-08-03T21:34:04.820Z,6.32
2022-08-03T21:39:23.442Z,6.40
2022-08-03T21:41:55.337Z,5.75
2022-08-03T21:44:29.067Z,6.60
2022-08-03T21:47:01.231Z,6.40
2022-08-03T21:50:05.405Z,6.18
2022-08-03T21:52:27.668Z,6.00
2022-08-03T21:55:00.141Z,6.05
2022-08-03T21:57:37.670Z,6.55
2022-08-03T22:02:44.214Z,6.03
2022-08-03T22:05:42.573Z,6.47
2022-08-03T22:08:16.057Z,7.28
2022-08-03T22:10:48.628Z,9.88
2022-08-03T22:13:43.754Z,6.75
2022-08-03T22:16:13.565Z,6.35
2022-08-03T22:18:46.655Z,6.07
2022-08-03T22:24:08.129Z,5.93
2022-08-03T22:26:38.929Z,6.20
2022-08-03T22:29:12.095Z,11.63
2022-08-03T22:34:15.579Z,8.98
2022-08-03T22:36:44.945Z,7.93
2022-08-03T22:39:26.684Z,6.30
2022-08-03T22:41:59.023Z,7.82
2022-08-03T22:44:31.203Z,6.57
2022-08-03T22:47:04.097Z,6.30
2022-08-03T22:49:34.552Z,6.63
2022-08-03T22:52:05.877Z,6.53
2022-08-03T22:54:36.317Z,7.05
2022-08-03T22:57:09.486Z,6.85
2022-08-03T22:59:42.091Z,7.40
2022-08-03T23:02:20.600Z,7.38
2022-08-03T23:04:54.741Z,7.30
2022-08-03T23:07:31.395Z,7.47
2022-08-03T23:10:03.732Z,7.20
2022-08-03T23:18:08.455Z,8.27
2022-08-03T23:20:50.306Z,7.93
2022-08-03T23:23:21.904Z,8.60
2022-08-03T23:25:53.649Z,9.00
2022-08-03T23:28:27.187Z,8.55
2022-08-03T23:33:43.296Z,8.90
2022-08-03T23:36:31.052Z,8.68
2022-08-03T23:39:05.188Z,8.57
2022-08-03T23:44:17.193Z,8.15
2022-08-03T23:52:50.912Z,8.75
